VIR197 TBPB-EGLL
Flight info
| Callsign | VIR197 |
|---|---|
| Flight time | 2h 42m |
| Altitude | 35000 |
| Route | DCT FISST/M085F350 DCT 19N055W 23N050W 26N045W/M085F370 29N040W 35N030W DCT GINSU DCT 41N020W/M085F390 DCT GONAN DCT ETIKI DCT REGHI/N0488F390 DCT AMPOP DCT SIDDI DCT DAWLY DCT ELRIP DCT OTMET OTMET1H |
| Aircraft | A35K/H-SDE2E3GHIJ3J4J5LM1ORWXY/LB1D1 |
Departure
| Time | 2026-05-06 12:03 |
|---|---|
| Airport | Grantley Adams International Airport (TBPB) |
Arrival
| Time | 2026-05-06 14:45 |
|---|---|
| Airport | London Heathrow Airport (EGLL) |
| Time | Latitude | Longitude | Altitude | Speed | Heading |
|---|---|---|---|---|---|
| 2026-05-06 11:42 | 13.07888 | -59.48686 | 182 ft | 0 kts | 348° |
| 2026-05-06 11:51 | 13.07872 | -59.48682 | 172 ft | 4 kts | 345° |
| 2026-05-06 11:51 | 13.07846 | -59.48675 | 182 ft | 3 kts | 348° |
| 2026-05-06 11:52 | 13.07825 | -59.48668 | 181 ft | 4 kts | 321° |
| 2026-05-06 11:52 | 13.07810 | -59.48647 | 181 ft | 4 kts | 283° |
| 2026-05-06 11:52 | 13.07808 | -59.48620 | 181 ft | 4 kts | 265° |
| 2026-05-06 11:52 | 13.07812 | -59.48593 | 181 ft | 3 kts | 256° |
| 2026-05-06 11:53 | 13.07812 | -59.48590 | 181 ft | 0 kts | 256° |
| 2026-05-06 11:53 | 13.07811 | -59.48596 | 181 ft | 0 kts | 256° |
| 2026-05-06 11:55 | 13.07810 | -59.48599 | 181 ft | 1 kts | 256° |
| 2026-05-06 11:56 | 13.07807 | -59.48611 | 181 ft | 2 kts | 256° |
| 2026-05-06 11:56 | 13.07803 | -59.48631 | 181 ft | 4 kts | 257° |
| 2026-05-06 11:56 | 13.07796 | -59.48661 | 181 ft | 5 kts | 257° |
| 2026-05-06 11:56 | 13.07787 | -59.48698 | 181 ft | 6 kts | 254° |
| 2026-05-06 11:57 | 13.07767 | -59.48740 | 181 ft | 7 kts | 239° |
| 2026-05-06 11:57 | 13.07751 | -59.48769 | 181 ft | 8 kts | 243° |
| 2026-05-06 11:57 | 13.07739 | -59.48799 | 181 ft | 8 kts | 249° |
| 2026-05-06 11:57 | 13.07720 | -59.48856 | 182 ft | 9 kts | 255° |
| 2026-05-06 11:58 | 13.07703 | -59.48922 | 182 ft | 10 kts | 255° |
| 2026-05-06 11:58 | 13.07682 | -59.49005 | 182 ft | 13 kts | 256° |
| 2026-05-06 11:58 | 13.07658 | -59.49103 | 182 ft | 16 kts | 256° |
| 2026-05-06 11:58 | 13.07630 | -59.49218 | 182 ft | 17 kts | 255° |
| 2026-05-06 11:59 | 13.07599 | -59.49340 | 182 ft | 18 kts | 257° |
| 2026-05-06 11:59 | 13.07568 | -59.49473 | 182 ft | 19 kts | 256° |
| 2026-05-06 11:59 | 13.07536 | -59.49607 | 182 ft | 20 kts | 256° |
| 2026-05-06 11:59 | 13.07501 | -59.49748 | 182 ft | 21 kts | 255° |
| 2026-05-06 12:00 | 13.07463 | -59.49893 | 182 ft | 21 kts | 255° |
| 2026-05-06 12:00 | 13.07432 | -59.50045 | 182 ft | 22 kts | 258° |
| 2026-05-06 12:00 | 13.07392 | -59.50197 | 182 ft | 22 kts | 255° |
| 2026-05-06 12:00 | 13.07351 | -59.50354 | 182 ft | 23 kts | 255° |
| 2026-05-06 12:01 | 13.07309 | -59.50514 | 182 ft | 23 kts | 255° |
| 2026-05-06 12:01 | 13.07268 | -59.50676 | 182 ft | 24 kts | 245° |
| 2026-05-06 12:01 | 13.07148 | -59.50709 | 182 ft | 18 kts | 162° |
| 2026-05-06 12:01 | 13.07110 | -59.50645 | 183 ft | 6 kts | 76° |
| 2026-05-06 12:02 | 13.07110 | -59.50644 | 183 ft | 0 kts | 76° |
| 2026-05-06 12:02 | 13.07136 | -59.50539 | 183 ft | 49 kts | 75° |
| 2026-05-06 12:02 | 13.07286 | -59.49925 | 195 ft | 127 kts | 76° |
| 2026-05-06 12:02 | 13.07542 | -59.48826 | 291 ft | 181 kts | 78° |
| 2026-05-06 12:03 | 13.07842 | -59.47566 | 1150 ft | 179 kts | 76° |
| 2026-05-06 12:03 | 13.08147 | -59.46345 | 1792 ft | 180 kts | 70° |
| 2026-05-06 12:03 | 13.09017 | -59.45332 | 2061 ft | 203 kts | 40° |
| 2026-05-06 12:03 | 13.10310 | -59.44604 | 2270 ft | 225 kts | 28° |
| 2026-05-06 12:04 | 13.11816 | -59.43949 | 2574 ft | 244 kts | 27° |
| 2026-05-06 12:04 | 13.13406 | -59.43220 | 3008 ft | 252 kts | 30° |
| 2026-05-06 12:04 | 13.14952 | -59.42403 | 3622 ft | 254 kts | 32° |
| 2026-05-06 12:04 | 13.16500 | -59.41478 | 4109 ft | 261 kts | 35° |
| 2026-05-06 12:05 | 13.18051 | -59.40468 | 4651 ft | 265 kts | 36° |
| 2026-05-06 12:05 | 13.19582 | -59.39425 | 5266 ft | 266 kts | 37° |
| 2026-05-06 12:05 | 13.21139 | -59.38338 | 5751 ft | 272 kts | 38° |
| 2026-05-06 12:05 | 13.22693 | -59.37251 | 6317 ft | 275 kts | 38° |
| 2026-05-06 12:06 | 13.24284 | -59.36139 | 6861 ft | 279 kts | 38° |
| 2026-05-06 12:06 | 13.25897 | -59.35017 | 7442 ft | 281 kts | 37° |
| 2026-05-06 12:06 | 13.27519 | -59.33897 | 8077 ft | 281 kts | 37° |
| 2026-05-06 12:06 | 13.29152 | -59.32773 | 8680 ft | 284 kts | 36° |
| 2026-05-06 12:07 | 13.30812 | -59.31633 | 9268 ft | 286 kts | 37° |
| 2026-05-06 12:07 | 13.32455 | -59.30505 | 9893 ft | 288 kts | 36° |
| 2026-05-06 12:07 | 13.34143 | -59.29344 | 10353 ft | 296 kts | 36° |
| 2026-05-06 12:07 | 13.35901 | -59.28132 | 10608 ft | 310 kts | 36° |
| 2026-05-06 12:08 | 13.37711 | -59.26884 | 10843 ft | 324 kts | 36° |
| 2026-05-06 12:08 | 13.39623 | -59.25567 | 11096 ft | 337 kts | 36° |
| 2026-05-06 12:08 | 13.41612 | -59.24196 | 11297 ft | 349 kts | 35° |
| 2026-05-06 12:08 | 13.43645 | -59.22797 | 11528 ft | 360 kts | 36° |
| 2026-05-06 12:09 | 13.45813 | -59.21303 | 11742 ft | 371 kts | 35° |
| 2026-05-06 12:09 | 13.51704 | -59.17248 | 12593 ft | 384 kts | 34° |
| 2026-05-06 12:09 | 13.53923 | -59.15719 | 13068 ft | 384 kts | 34° |
| 2026-05-06 12:09 | 13.56152 | -59.14182 | 13454 ft | 387 kts | 34° |
| 2026-05-06 12:10 | 13.58362 | -59.12658 | 13893 ft | 387 kts | 34° |
| 2026-05-06 12:10 | 13.60612 | -59.11105 | 14232 ft | 390 kts | 34° |
| 2026-05-06 12:10 | 13.62878 | -59.09542 | 14554 ft | 394 kts | 34° |
| 2026-05-06 12:10 | 13.65165 | -59.07963 | 14852 ft | 396 kts | 34° |
| 2026-05-06 12:11 | 13.67459 | -59.06378 | 15197 ft | 399 kts | 34° |
| 2026-05-06 12:11 | 13.69754 | -59.04793 | 15530 ft | 401 kts | 34° |
| 2026-05-06 12:11 | 13.72077 | -59.03187 | 15829 ft | 405 kts | 34° |
| 2026-05-06 12:11 | 13.74428 | -59.01562 | 16162 ft | 406 kts | 34° |
| 2026-05-06 12:12 | 13.76789 | -58.99932 | 16420 ft | 411 kts | 34° |
| 2026-05-06 12:12 | 13.79173 | -58.98285 | 16724 ft | 413 kts | 34° |
| 2026-05-06 12:12 | 13.81582 | -58.96620 | 16930 ft | 419 kts | 34° |
| 2026-05-06 12:12 | 13.83977 | -58.94964 | 17284 ft | 420 kts | 34° |
| 2026-05-06 12:13 | 13.86424 | -58.93270 | 17534 ft | 425 kts | 34° |
| 2026-05-06 12:13 | 13.88886 | -58.91565 | 17831 ft | 428 kts | 34° |
| 2026-05-06 12:13 | 13.91377 | -58.89841 | 18089 ft | 432 kts | 34° |
| 2026-05-06 12:13 | 13.93880 | -58.88107 | 18374 ft | 435 kts | 34° |
| 2026-05-06 12:14 | 13.96406 | -58.86357 | 18629 ft | 438 kts | 34° |
| 2026-05-06 12:14 | 13.98905 | -58.84625 | 18886 ft | 440 kts | 34° |
| 2026-05-06 12:14 | 14.01456 | -58.82857 | 19159 ft | 442 kts | 34° |
| 2026-05-06 12:14 | 14.04024 | -58.81077 | 19418 ft | 444 kts | 34° |
| 2026-05-06 12:15 | 14.06595 | -58.79295 | 19680 ft | 446 kts | 34° |
| 2026-05-06 12:15 | 14.09174 | -58.77506 | 19947 ft | 448 kts | 34° |
| 2026-05-06 12:15 | 14.11732 | -58.75731 | 20242 ft | 449 kts | 34° |
| 2026-05-06 12:15 | 14.14334 | -58.73925 | 20499 ft | 452 kts | 34° |
| 2026-05-06 12:16 | 14.16956 | -58.72106 | 20754 ft | 454 kts | 34° |
| 2026-05-06 12:16 | 14.19582 | -58.70281 | 21005 ft | 456 kts | 34° |
| 2026-05-06 12:16 | 14.22226 | -58.68445 | 21271 ft | 458 kts | 34° |
| 2026-05-06 12:16 | 14.24877 | -58.66603 | 21539 ft | 461 kts | 34° |
| 2026-05-06 12:17 | 14.27516 | -58.64769 | 21794 ft | 463 kts | 34° |
| 2026-05-06 12:17 | 14.30205 | -58.62900 | 22068 ft | 465 kts | 33° |
| 2026-05-06 12:17 | 14.32903 | -58.61023 | 22313 ft | 468 kts | 34° |
| 2026-05-06 12:17 | 14.35607 | -58.59143 | 22581 ft | 470 kts | 33° |
| 2026-05-06 12:18 | 14.38294 | -58.57273 | 22858 ft | 472 kts | 33° |
| 2026-05-06 12:18 | 14.41025 | -58.55371 | 23106 ft | 474 kts | 33° |
| 2026-05-06 12:18 | 14.43774 | -58.53457 | 23386 ft | 476 kts | 33° |
| 2026-05-06 12:18 | 14.46536 | -58.51534 | 23630 ft | 479 kts | 33° |
| 2026-05-06 12:19 | 14.49308 | -58.49604 | 23849 ft | 481 kts | 33° |
| 2026-05-06 12:19 | 14.52048 | -58.47695 | 24071 ft | 482 kts | 33° |
| 2026-05-06 12:19 | 14.54861 | -58.45735 | 24266 ft | 485 kts | 33° |
| 2026-05-06 12:19 | 14.57664 | -58.43780 | 24514 ft | 487 kts | 33° |
| 2026-05-06 12:20 | 14.60477 | -58.41818 | 24768 ft | 488 kts | 33° |
| 2026-05-06 12:20 | 14.63268 | -58.39870 | 24985 ft | 490 kts | 33° |
| 2026-05-06 12:20 | 14.66098 | -58.37892 | 25272 ft | 491 kts | 33° |
| 2026-05-06 12:20 | 14.68944 | -58.35905 | 25527 ft | 493 kts | 33° |
| 2026-05-06 12:21 | 14.71799 | -58.33913 | 25778 ft | 495 kts | 33° |
| 2026-05-06 12:21 | 14.74668 | -58.31910 | 26059 ft | 497 kts | 33° |
| 2026-05-06 12:21 | 14.77508 | -58.29924 | 26308 ft | 500 kts | 33° |
| 2026-05-06 12:21 | 14.80404 | -58.27900 | 26579 ft | 502 kts | 33° |
| 2026-05-06 12:22 | 14.83314 | -58.25866 | 26885 ft | 504 kts | 33° |
| 2026-05-06 12:22 | 14.86188 | -58.23855 | 27125 ft | 506 kts | 33° |
| 2026-05-06 12:22 | 14.89120 | -58.21805 | 27438 ft | 508 kts | 32° |
| 2026-05-06 12:22 | 14.92065 | -58.19745 | 27709 ft | 510 kts | 33° |
| 2026-05-06 12:23 | 14.95011 | -58.17682 | 27934 ft | 514 kts | 33° |
| 2026-05-06 12:23 | 14.97979 | -58.15601 | 28215 ft | 515 kts | 33° |
| 2026-05-06 12:23 | 15.00927 | -58.13535 | 28498 ft | 517 kts | 33° |
| 2026-05-06 12:23 | 15.03916 | -58.11439 | 28714 ft | 519 kts | 33° |
| 2026-05-06 12:24 | 15.06916 | -58.09332 | 28964 ft | 521 kts | 33° |
| 2026-05-06 12:24 | 15.09923 | -58.07221 | 29331 ft | 520 kts | 33° |
| 2026-05-06 12:24 | 15.12914 | -58.05123 | 29685 ft | 519 kts | 33° |
| 2026-05-06 12:24 | 15.15870 | -58.03046 | 30054 ft | 519 kts | 33° |
| 2026-05-06 12:25 | 15.18861 | -58.00946 | 30359 ft | 518 kts | 33° |
| 2026-05-06 12:25 | 15.21863 | -57.98839 | 30550 ft | 519 kts | 33° |
| 2026-05-06 12:25 | 15.24853 | -57.96741 | 30829 ft | 519 kts | 33° |
| 2026-05-06 12:25 | 15.27845 | -57.94640 | 31130 ft | 517 kts | 33° |
| 2026-05-06 12:26 | 15.30787 | -57.92570 | 31367 ft | 517 kts | 33° |
| 2026-05-06 12:26 | 15.33798 | -57.90450 | 31629 ft | 517 kts | 33° |
| 2026-05-06 12:26 | 15.36746 | -57.88375 | 31899 ft | 516 kts | 33° |
| 2026-05-06 12:26 | 15.40717 | -57.85580 | 32246 ft | 515 kts | 33° |
| 2026-05-06 12:27 | 15.52561 | -57.77238 | 33130 ft | 514 kts | 33° |
| 2026-05-06 12:27 | 15.64389 | -57.68890 | 34011 ft | 512 kts | 33° |
| 2026-05-06 12:27 | 15.76161 | -57.60572 | 34742 ft | 509 kts | 33° |
| 2026-05-06 12:27 | 15.87885 | -57.52278 | 35127 ft | 513 kts | 33° |
| 2026-05-06 12:28 | 16.11590 | -57.35468 | 35131 ft | 515 kts | 33° |
| 2026-05-06 12:28 | 16.35105 | -57.18740 | 35134 ft | 516 kts | 33° |
| 2026-05-06 12:29 | 16.54980 | -57.04571 | 35139 ft | 515 kts | 33° |
| 2026-05-06 12:29 | 16.78556 | -56.87709 | 35146 ft | 516 kts | 34° |
| 2026-05-06 12:30 | 17.02333 | -56.70651 | 35146 ft | 517 kts | 34° |
| 2026-05-06 12:30 | 17.25854 | -56.53721 | 35143 ft | 515 kts | 34° |
| 2026-05-06 12:31 | 17.49527 | -56.36634 | 35148 ft | 515 kts | 34° |
| 2026-05-06 12:31 | 17.73040 | -56.19604 | 35151 ft | 515 kts | 34° |
| 2026-05-06 12:32 | 17.96655 | -56.02447 | 35157 ft | 516 kts | 34° |
| 2026-05-06 12:32 | 18.17957 | -55.82188 | 35158 ft | 516 kts | 43° |
| 2026-05-06 12:33 | 18.38828 | -55.61387 | 35157 ft | 516 kts | 43° |
| 2026-05-06 12:33 | 18.59559 | -55.40660 | 35158 ft | 516 kts | 43° |
| 2026-05-06 12:34 | 18.80342 | -55.19807 | 35163 ft | 516 kts | 43° |
| 2026-05-06 12:34 | 19.01160 | -54.98835 | 35147 ft | 516 kts | 44° |
| 2026-05-06 12:35 | 19.19945 | -54.76082 | 35170 ft | 516 kts | 49° |
| 2026-05-06 12:35 | 19.38963 | -54.53204 | 35158 ft | 517 kts | 49° |
| 2026-05-06 12:36 | 19.57963 | -54.30243 | 35177 ft | 517 kts | 49° |
| 2026-05-06 12:36 | 19.76867 | -54.07308 | 35159 ft | 517 kts | 49° |
| 2026-05-06 12:37 | 19.95681 | -53.84393 | 35169 ft | 516 kts | 49° |
| 2026-05-06 12:37 | 20.14556 | -53.61313 | 35169 ft | 516 kts | 49° |
| 2026-05-06 12:38 | 20.33400 | -53.38178 | 35189 ft | 516 kts | 49° |
| 2026-05-06 12:38 | 20.52081 | -53.15152 | 35189 ft | 515 kts | 49° |
| 2026-05-06 12:39 | 20.70840 | -52.91933 | 35182 ft | 515 kts | 49° |
| 2026-05-06 12:39 | 20.89602 | -52.68615 | 35202 ft | 515 kts | 49° |
| 2026-05-06 12:40 | 21.08277 | -52.45307 | 35182 ft | 514 kts | 49° |
| 2026-05-06 12:40 | 21.26792 | -52.22102 | 35189 ft | 514 kts | 49° |
| 2026-05-06 12:41 | 21.45403 | -51.98677 | 35192 ft | 514 kts | 49° |
| 2026-05-06 12:41 | 21.63852 | -51.75356 | 35191 ft | 514 kts | 49° |
| 2026-05-06 12:42 | 21.82384 | -51.51828 | 35194 ft | 514 kts | 49° |
| 2026-05-06 12:42 | 22.00770 | -51.28384 | 35199 ft | 514 kts | 49° |
| 2026-05-06 12:43 | 22.19199 | -51.04781 | 35200 ft | 515 kts | 49° |
| 2026-05-06 12:43 | 22.37640 | -50.81055 | 35200 ft | 514 kts | 49° |
| 2026-05-06 12:44 | 22.56013 | -50.57309 | 35200 ft | 514 kts | 49° |
| 2026-05-06 12:44 | 22.74381 | -50.33463 | 35204 ft | 514 kts | 49° |
| 2026-05-06 12:45 | 22.92579 | -50.09727 | 35207 ft | 513 kts | 49° |
| 2026-05-06 12:46 | 23.17676 | -49.71915 | 35210 ft | 514 kts | 54° |
| 2026-05-06 12:46 | 23.33785 | -49.46171 | 35212 ft | 513 kts | 55° |
| 2026-05-06 12:47 | 23.49748 | -49.20529 | 35213 ft | 513 kts | 55° |
| 2026-05-06 12:47 | 23.65759 | -48.94681 | 35212 ft | 513 kts | 55° |
| 2026-05-06 12:48 | 23.81671 | -48.68860 | 35212 ft | 515 kts | 55° |
| 2026-05-06 12:48 | 23.97637 | -48.42819 | 35212 ft | 514 kts | 55° |
| 2026-05-06 12:49 | 24.13375 | -48.17013 | 35213 ft | 512 kts | 55° |
| 2026-05-06 12:49 | 24.29224 | -47.90890 | 35217 ft | 512 kts | 55° |
| 2026-05-06 12:50 | 24.44863 | -47.64976 | 35220 ft | 513 kts | 55° |
| 2026-05-06 12:50 | 24.60589 | -47.38777 | 35220 ft | 513 kts | 55° |
| 2026-05-06 12:51 | 24.76265 | -47.12520 | 35220 ft | 512 kts | 55° |
| 2026-05-06 12:51 | 24.91783 | -46.86388 | 35221 ft | 512 kts | 55° |
| 2026-05-06 12:52 | 25.07308 | -46.60100 | 35226 ft | 514 kts | 55° |
| 2026-05-06 12:52 | 25.22889 | -46.33570 | 35225 ft | 513 kts | 55° |
| 2026-05-06 12:53 | 25.38321 | -46.07146 | 35228 ft | 513 kts | 55° |
| 2026-05-06 12:53 | 25.53757 | -45.80567 | 35231 ft | 511 kts | 55° |
| 2026-05-06 12:54 | 25.69127 | -45.53950 | 35228 ft | 511 kts | 55° |
| 2026-05-06 12:54 | 25.84340 | -45.27454 | 35238 ft | 511 kts | 55° |
| 2026-05-06 12:55 | 25.99631 | -45.00669 | 35233 ft | 512 kts | 55° |
| 2026-05-06 12:55 | 26.15961 | -44.74797 | 35240 ft | 511 kts | 52° |
| 2026-05-06 12:56 | 26.32178 | -44.49006 | 35243 ft | 510 kts | 53° |
| 2026-05-06 12:56 | 26.48487 | -44.22934 | 35243 ft | 511 kts | 53° |
| 2026-05-06 12:57 | 26.64646 | -43.96951 | 35248 ft | 511 kts | 53° |
| 2026-05-06 12:57 | 26.80857 | -43.70734 | 35249 ft | 511 kts | 53° |
| 2026-05-06 12:58 | 26.96929 | -43.44589 | 35251 ft | 513 kts | 53° |
| 2026-05-06 12:58 | 27.13136 | -43.18069 | 35257 ft | 513 kts | 53° |
| 2026-05-06 12:59 | 27.29237 | -42.91564 | 35260 ft | 512 kts | 53° |
| 2026-05-06 12:59 | 27.45184 | -42.65157 | 35263 ft | 512 kts | 53° |
| 2026-05-06 13:00 | 27.61173 | -42.38518 | 35269 ft | 512 kts | 53° |
| 2026-05-06 13:00 | 27.77101 | -42.11818 | 35276 ft | 512 kts | 53° |
| 2026-05-06 13:01 | 27.92894 | -41.85182 | 35276 ft | 512 kts | 53° |
| 2026-05-06 13:01 | 28.08653 | -41.58438 | 35286 ft | 512 kts | 53° |
| 2026-05-06 13:02 | 28.24492 | -41.31392 | 35288 ft | 514 kts | 53° |
| 2026-05-06 13:02 | 28.40188 | -41.04416 | 35289 ft | 514 kts | 53° |
| 2026-05-06 13:03 | 28.55915 | -40.77217 | 35290 ft | 514 kts | 53° |
| 2026-05-06 13:03 | 28.71552 | -40.49998 | 35292 ft | 515 kts | 53° |
| 2026-05-06 13:04 | 28.87227 | -40.22535 | 35299 ft | 513 kts | 53° |
| 2026-05-06 13:04 | 29.02792 | -39.95441 | 35301 ft | 511 kts | 49° |
| 2026-05-06 13:05 | 29.20391 | -39.69933 | 35305 ft | 510 kts | 48° |
| 2026-05-06 13:05 | 29.37736 | -39.44135 | 35301 ft | 510 kts | 48° |
| 2026-05-06 13:06 | 29.54947 | -39.18394 | 35307 ft | 510 kts | 48° |
| 2026-05-06 13:06 | 29.72266 | -38.92328 | 35307 ft | 512 kts | 48° |
| 2026-05-06 13:07 | 29.89528 | -38.66177 | 35323 ft | 512 kts | 49° |
| 2026-05-06 13:07 | 30.06639 | -38.40089 | 35316 ft | 513 kts | 49° |
| 2026-05-06 13:08 | 30.23880 | -38.13632 | 35320 ft | 514 kts | 49° |
| 2026-05-06 13:08 | 30.41088 | -37.87050 | 35320 ft | 514 kts | 49° |
| 2026-05-06 13:09 | 30.58113 | -37.60575 | 35306 ft | 514 kts | 49° |
| 2026-05-06 13:09 | 30.75225 | -37.33787 | 35322 ft | 516 kts | 49° |
| 2026-05-06 13:10 | 30.92305 | -37.06866 | 35327 ft | 516 kts | 49° |
| 2026-05-06 13:10 | 31.09206 | -36.80045 | 35328 ft | 516 kts | 49° |
| 2026-05-06 13:11 | 31.26205 | -36.52882 | 35327 ft | 518 kts | 49° |
| 2026-05-06 13:11 | 31.43179 | -36.25569 | 35340 ft | 518 kts | 49° |
| 2026-05-06 13:12 | 31.60085 | -35.98174 | 35333 ft | 518 kts | 49° |
| 2026-05-06 13:12 | 31.76823 | -35.70856 | 35330 ft | 517 kts | 49° |
| 2026-05-06 13:13 | 31.93573 | -35.43325 | 35329 ft | 515 kts | 49° |
| 2026-05-06 13:13 | 32.10134 | -35.15904 | 35330 ft | 513 kts | 49° |
| 2026-05-06 13:14 | 32.26694 | -34.88292 | 35333 ft | 512 kts | 49° |
| 2026-05-06 13:14 | 32.43113 | -34.60712 | 35333 ft | 510 kts | 49° |
| 2026-05-06 13:15 | 32.59343 | -34.33253 | 35332 ft | 510 kts | 49° |
| 2026-05-06 13:15 | 32.75584 | -34.05573 | 35333 ft | 510 kts | 49° |
| 2026-05-06 13:16 | 32.91674 | -33.77945 | 35333 ft | 510 kts | 50° |
| 2026-05-06 13:16 | 33.07799 | -33.50052 | 35333 ft | 511 kts | 49° |
| 2026-05-06 13:17 | 33.23776 | -33.22205 | 35331 ft | 511 kts | 49° |
| 2026-05-06 13:17 | 33.37072 | -32.98868 | 35319 ft | 509 kts | 50° |
| 2026-05-06 13:18 | 33.52986 | -32.70744 | 35332 ft | 510 kts | 50° |
| 2026-05-06 13:18 | 33.68773 | -32.42627 | 35333 ft | 509 kts | 49° |
| 2026-05-06 13:19 | 33.84530 | -32.14346 | 35331 ft | 508 kts | 49° |
| 2026-05-06 13:19 | 34.00181 | -31.86036 | 35327 ft | 506 kts | 49° |
| 2026-05-06 13:20 | 34.15722 | -31.57704 | 35330 ft | 505 kts | 49° |
| 2026-05-06 13:20 | 34.31178 | -31.29305 | 35328 ft | 504 kts | 49° |
| 2026-05-06 13:21 | 34.46475 | -31.00976 | 35326 ft | 506 kts | 50° |
| 2026-05-06 13:21 | 34.61849 | -30.72274 | 35325 ft | 505 kts | 50° |
| 2026-05-06 13:22 | 34.77124 | -30.43525 | 35333 ft | 504 kts | 50° |
| 2026-05-06 13:22 | 34.92216 | -30.14892 | 35325 ft | 505 kts | 51° |
| 2026-05-06 13:23 | 35.07666 | -29.86387 | 35325 ft | 504 kts | 48° |
| 2026-05-06 13:23 | 35.23687 | -29.58092 | 35319 ft | 506 kts | 49° |
| 2026-05-06 13:24 | 35.39556 | -29.29713 | 35320 ft | 507 kts | 49° |
| 2026-05-06 13:24 | 35.55450 | -29.01057 | 35300 ft | 507 kts | 50° |
| 2026-05-06 13:25 | 35.71312 | -28.72222 | 35313 ft | 507 kts | 50° |
| 2026-05-06 13:25 | 35.87021 | -28.43428 | 35314 ft | 509 kts | 50° |
| 2026-05-06 13:26 | 36.02775 | -28.14308 | 35312 ft | 509 kts | 50° |
| 2026-05-06 13:26 | 36.18473 | -27.85044 | 35311 ft | 511 kts | 50° |
| 2026-05-06 13:27 | 36.34861 | -27.56612 | 35303 ft | 505 kts | 43° |
| 2026-05-06 13:27 | 36.53158 | -27.29997 | 35306 ft | 506 kts | 43° |
| 2026-05-06 13:28 | 36.71321 | -27.03309 | 35297 ft | 507 kts | 44° |
| 2026-05-06 13:28 | 36.89529 | -26.76341 | 35296 ft | 508 kts | 44° |
| 2026-05-06 13:29 | 37.07755 | -26.49126 | 35293 ft | 508 kts | 44° |
| 2026-05-06 13:29 | 37.25780 | -26.21991 | 35293 ft | 509 kts | 44° |
| 2026-05-06 13:30 | 37.43855 | -25.94550 | 35298 ft | 509 kts | 44° |
| 2026-05-06 13:30 | 37.61857 | -25.66996 | 35290 ft | 509 kts | 44° |
| 2026-05-06 13:31 | 37.79678 | -25.39485 | 35283 ft | 508 kts | 44° |
| 2026-05-06 13:31 | 37.97503 | -25.11737 | 35276 ft | 508 kts | 44° |
| 2026-05-06 13:32 | 38.15314 | -24.83772 | 35276 ft | 507 kts | 44° |
| 2026-05-06 13:32 | 38.32999 | -24.55763 | 35274 ft | 507 kts | 44° |
| 2026-05-06 13:33 | 38.50519 | -24.27776 | 35268 ft | 506 kts | 44° |
| 2026-05-06 13:33 | 38.68091 | -23.99461 | 35262 ft | 506 kts | 44° |
| 2026-05-06 13:34 | 38.85436 | -23.71267 | 35264 ft | 505 kts | 44° |
| 2026-05-06 13:34 | 39.02805 | -23.42783 | 35273 ft | 505 kts | 44° |
| 2026-05-06 13:35 | 39.20036 | -23.14271 | 35258 ft | 503 kts | 45° |
| 2026-05-06 13:35 | 39.37018 | -22.85920 | 35250 ft | 501 kts | 45° |
| 2026-05-06 13:36 | 39.54036 | -22.57254 | 35238 ft | 501 kts | 45° |
| 2026-05-06 13:36 | 39.70998 | -22.28420 | 35236 ft | 501 kts | 45° |
| 2026-05-06 13:37 | 39.87755 | -21.99679 | 35235 ft | 503 kts | 45° |
| 2026-05-06 13:37 | 40.04606 | -21.70501 | 35230 ft | 501 kts | 45° |
| 2026-05-06 13:38 | 40.21265 | -21.41393 | 35223 ft | 500 kts | 45° |
| 2026-05-06 13:38 | 40.37882 | -21.12087 | 35234 ft | 500 kts | 45° |
| 2026-05-06 13:39 | 40.54383 | -20.82712 | 35219 ft | 499 kts | 45° |
| 2026-05-06 13:39 | 40.70640 | -20.53493 | 35215 ft | 496 kts | 45° |
| 2026-05-06 13:40 | 40.86883 | -20.24023 | 35214 ft | 493 kts | 46° |
| 2026-05-06 13:40 | 41.03439 | -19.95347 | 35209 ft | 481 kts | 38° |
| 2026-05-06 13:41 | 41.21970 | -19.70104 | 35207 ft | 479 kts | 38° |
| 2026-05-06 13:41 | 41.40546 | -19.44572 | 35226 ft | 479 kts | 38° |
| 2026-05-06 13:42 | 41.58914 | -19.19103 | 35201 ft | 475 kts | 38° |
| 2026-05-06 13:42 | 41.77027 | -18.93767 | 35195 ft | 471 kts | 38° |
| 2026-05-06 13:43 | 41.95119 | -18.68242 | 35195 ft | 471 kts | 38° |
| 2026-05-06 13:43 | 42.13171 | -18.42545 | 35208 ft | 471 kts | 38° |
| 2026-05-06 13:44 | 42.30915 | -18.17062 | 35192 ft | 468 kts | 38° |
| 2026-05-06 13:44 | 42.48637 | -17.91385 | 35187 ft | 464 kts | 39° |
| 2026-05-06 13:45 | 42.66167 | -17.65761 | 35186 ft | 464 kts | 39° |
| 2026-05-06 13:45 | 42.92455 | -17.26908 | 35183 ft | 470 kts | 40° |
| 2026-05-06 13:46 | 43.10188 | -17.00391 | 35175 ft | 473 kts | 41° |
| 2026-05-06 13:46 | 43.27964 | -16.73564 | 35170 ft | 475 kts | 41° |
| 2026-05-06 13:47 | 43.45626 | -16.46662 | 35167 ft | 476 kts | 41° |
| 2026-05-06 13:47 | 43.63344 | -16.19413 | 35159 ft | 476 kts | 41° |
| 2026-05-06 13:48 | 43.80989 | -15.92019 | 35157 ft | 476 kts | 41° |
| 2026-05-06 13:48 | 43.98446 | -15.64658 | 35166 ft | 476 kts | 42° |
| 2026-05-06 13:49 | 44.15941 | -15.36967 | 35144 ft | 476 kts | 43° |
| 2026-05-06 13:49 | 44.33397 | -15.09069 | 35145 ft | 477 kts | 43° |
| 2026-05-06 13:50 | 44.50830 | -14.80926 | 35138 ft | 478 kts | 43° |
| 2026-05-06 13:50 | 44.68225 | -14.52573 | 35135 ft | 481 kts | 44° |
| 2026-05-06 13:51 | 44.85755 | -14.23703 | 35131 ft | 484 kts | 45° |
| 2026-05-06 13:51 | 45.03340 | -13.94558 | 35124 ft | 488 kts | 45° |
| 2026-05-06 13:52 | 45.21312 | -13.65849 | 35116 ft | 491 kts | 46° |
| 2026-05-06 13:52 | 45.39385 | -13.36530 | 35119 ft | 494 kts | 46° |
| 2026-05-06 13:53 | 45.57518 | -13.06802 | 35110 ft | 496 kts | 47° |
| 2026-05-06 13:53 | 45.75482 | -12.77035 | 35101 ft | 497 kts | 48° |
| 2026-05-06 13:54 | 45.93570 | -12.46736 | 35101 ft | 498 kts | 49° |
| 2026-05-06 13:54 | 46.11440 | -12.16473 | 35097 ft | 498 kts | 49° |
| 2026-05-06 13:55 | 46.29311 | -11.85873 | 35093 ft | 500 kts | 49° |
| 2026-05-06 13:55 | 46.47166 | -11.54958 | 35086 ft | 501 kts | 50° |
| 2026-05-06 13:56 | 46.65015 | -11.23702 | 35087 ft | 502 kts | 50° |
| 2026-05-06 13:56 | 46.82782 | -10.92234 | 35081 ft | 502 kts | 50° |
| 2026-05-06 13:57 | 47.00478 | -10.60529 | 35075 ft | 501 kts | 51° |
| 2026-05-06 13:57 | 47.17937 | -10.28886 | 35073 ft | 501 kts | 51° |
| 2026-05-06 13:58 | 47.35472 | -9.96730 | 35069 ft | 501 kts | 51° |
| 2026-05-06 13:58 | 47.52737 | -9.64698 | 35062 ft | 501 kts | 51° |
| 2026-05-06 13:59 | 47.69991 | -9.32304 | 35064 ft | 500 kts | 51° |
| 2026-05-06 13:59 | 47.87070 | -8.99858 | 35061 ft | 499 kts | 51° |
| 2026-05-06 14:00 | 48.00043 | -8.64147 | 35047 ft | 499 kts | 88° |
| 2026-05-06 14:00 | 48.00055 | -8.22853 | 35039 ft | 499 kts | 90° |
| 2026-05-06 14:01 | 48.01898 | -8.02450 | 35057 ft | 498 kts | 65° |
| 2026-05-06 14:01 | 48.10918 | -7.87110 | 35039 ft | 495 kts | 37° |
| 2026-05-06 14:01 | 48.32734 | -7.61692 | 35043 ft | 494 kts | 37° |
| 2026-05-06 14:02 | 48.54226 | -7.36161 | 35048 ft | 494 kts | 37° |
| 2026-05-06 14:02 | 48.75794 | -7.10264 | 35042 ft | 494 kts | 37° |
| 2026-05-06 14:03 | 48.93672 | -6.88573 | 35036 ft | 494 kts | 37° |
| 2026-05-06 14:03 | 49.18627 | -6.57949 | 35036 ft | 494 kts | 37° |
| 2026-05-06 14:04 | 49.36423 | -6.35859 | 35030 ft | 494 kts | 38° |
| 2026-05-06 14:04 | 49.56681 | -6.07333 | 35020 ft | 497 kts | 52° |
| 2026-05-06 14:05 | 49.72884 | -5.72593 | 35008 ft | 497 kts | 53° |
| 2026-05-06 14:05 | 49.88887 | -5.37898 | 34996 ft | 498 kts | 53° |
| 2026-05-06 14:06 | 50.04902 | -5.02708 | 34996 ft | 498 kts | 53° |
| 2026-05-06 14:06 | 50.20766 | -4.67386 | 35005 ft | 499 kts | 54° |
| 2026-05-06 14:07 | 50.29042 | -4.48770 | 35048 ft | 500 kts | 54° |
| 2026-05-06 14:07 | 50.32995 | -4.39830 | 35006 ft | 498 kts | 54° |
| 2026-05-06 14:08 | 50.36920 | -4.30922 | 35001 ft | 500 kts | 54° |
| 2026-05-06 14:08 | 50.40868 | -4.21934 | 34997 ft | 500 kts | 54° |
| 2026-05-06 14:09 | 50.44797 | -4.12957 | 35000 ft | 500 kts | 54° |
| 2026-05-06 14:09 | 50.48727 | -4.03945 | 34997 ft | 500 kts | 54° |
| 2026-05-06 14:10 | 50.51857 | -3.94234 | 34993 ft | 501 kts | 71° |
| 2026-05-06 14:10 | 50.53420 | -3.83540 | 35000 ft | 502 kts | 79° |
| 2026-05-06 14:11 | 50.54624 | -3.72673 | 34998 ft | 503 kts | 80° |
| 2026-05-06 14:11 | 50.55766 | -3.61889 | 34994 ft | 502 kts | 80° |
| 2026-05-06 14:12 | 50.56930 | -3.51043 | 34992 ft | 502 kts | 80° |
| 2026-05-06 14:12 | 50.58124 | -3.40205 | 34994 ft | 501 kts | 79° |
| 2026-05-06 14:13 | 50.59387 | -3.29469 | 34992 ft | 502 kts | 79° |
| 2026-05-06 14:13 | 50.60661 | -3.18653 | 35002 ft | 501 kts | 79° |
| 2026-05-06 14:14 | 50.61905 | -3.07888 | 34973 ft | 503 kts | 79° |
| 2026-05-06 14:14 | 50.62525 | -3.02468 | 34718 ft | 502 kts | 79° |
| 2026-05-06 14:14 | 50.63141 | -2.97054 | 34215 ft | 502 kts | 79° |
| 2026-05-06 14:15 | 50.63754 | -2.91642 | 33636 ft | 500 kts | 79° |
| 2026-05-06 14:15 | 50.64360 | -2.86239 | 33023 ft | 499 kts | 79° |
| 2026-05-06 14:15 | 50.64961 | -2.80855 | 32429 ft | 499 kts | 79° |
| 2026-05-06 14:15 | 50.65562 | -2.75452 | 31838 ft | 500 kts | 79° |
| 2026-05-06 14:16 | 50.66161 | -2.70053 | 31285 ft | 500 kts | 80° |
| 2026-05-06 14:16 | 50.66760 | -2.64641 | 30703 ft | 501 kts | 80° |
| 2026-05-06 14:16 | 50.67349 | -2.59284 | 30163 ft | 501 kts | 80° |
| 2026-05-06 14:16 | 50.67916 | -2.53860 | 29546 ft | 502 kts | 82° |
| 2026-05-06 14:17 | 50.68068 | -2.48322 | 28897 ft | 502 kts | 92° |
| 2026-05-06 14:17 | 50.67881 | -2.42899 | 28304 ft | 500 kts | 94° |
| 2026-05-06 14:17 | 50.67642 | -2.37439 | 27705 ft | 495 kts | 94° |
| 2026-05-06 14:17 | 50.67402 | -2.32047 | 27123 ft | 491 kts | 94° |
| 2026-05-06 14:18 | 50.67166 | -2.26690 | 26546 ft | 487 kts | 94° |
| 2026-05-06 14:18 | 50.66932 | -2.21372 | 25988 ft | 483 kts | 94° |
| 2026-05-06 14:18 | 50.66701 | -2.16155 | 25449 ft | 479 kts | 94° |
| 2026-05-06 14:18 | 50.66469 | -2.10924 | 24894 ft | 476 kts | 94° |
| 2026-05-06 14:19 | 50.66236 | -2.05727 | 24371 ft | 472 kts | 94° |
| 2026-05-06 14:19 | 50.66122 | -2.00584 | 23851 ft | 469 kts | 90° |
| 2026-05-06 14:19 | 50.66166 | -1.95442 | 23303 ft | 466 kts | 89° |
| 2026-05-06 14:19 | 50.66233 | -1.90351 | 22676 ft | 462 kts | 89° |
| 2026-05-06 14:20 | 50.66297 | -1.85358 | 22096 ft | 458 kts | 89° |
| 2026-05-06 14:20 | 50.66357 | -1.80335 | 21514 ft | 455 kts | 89° |
| 2026-05-06 14:20 | 50.66412 | -1.75375 | 20940 ft | 451 kts | 89° |
| 2026-05-06 14:20 | 50.66464 | -1.70450 | 20379 ft | 447 kts | 89° |
| 2026-05-06 14:21 | 50.66514 | -1.65563 | 19825 ft | 444 kts | 89° |
| 2026-05-06 14:21 | 50.66562 | -1.60705 | 19277 ft | 440 kts | 89° |
| 2026-05-06 14:21 | 50.66812 | -1.55944 | 18742 ft | 436 kts | 79° |
| 2026-05-06 14:21 | 50.67670 | -1.51440 | 18231 ft | 431 kts | 66° |
| 2026-05-06 14:22 | 50.68933 | -1.47174 | 17626 ft | 427 kts | 63° |
| 2026-05-06 14:22 | 50.70250 | -1.42964 | 17033 ft | 424 kts | 63° |
| 2026-05-06 14:22 | 50.71546 | -1.38813 | 16509 ft | 420 kts | 63° |
| 2026-05-06 14:22 | 50.72828 | -1.34684 | 16031 ft | 416 kts | 63° |
| 2026-05-06 14:23 | 50.74092 | -1.30596 | 15579 ft | 413 kts | 63° |
| 2026-05-06 14:23 | 50.75365 | -1.26620 | 15126 ft | 410 kts | 59° |
| 2026-05-06 14:23 | 50.77087 | -1.23051 | 14682 ft | 403 kts | 42° |
| 2026-05-06 14:23 | 50.79291 | -1.20357 | 14250 ft | 398 kts | 32° |
| 2026-05-06 14:24 | 50.81607 | -1.17976 | 13839 ft | 395 kts | 31° |
| 2026-05-06 14:24 | 50.83909 | -1.15634 | 13424 ft | 388 kts | 31° |
| 2026-05-06 14:24 | 50.86124 | -1.13367 | 13003 ft | 377 kts | 31° |
| 2026-05-06 14:24 | 50.88301 | -1.11125 | 12604 ft | 367 kts | 31° |
| 2026-05-06 14:25 | 50.90423 | -1.08937 | 12188 ft | 358 kts | 31° |
| 2026-05-06 14:25 | 50.92455 | -1.06833 | 11803 ft | 349 kts | 31° |
| 2026-05-06 14:25 | 50.94459 | -1.04758 | 11438 ft | 340 kts | 31° |
| 2026-05-06 14:25 | 50.96420 | -1.02724 | 11057 ft | 332 kts | 31° |
| 2026-05-06 14:26 | 50.98332 | -1.00738 | 10688 ft | 324 kts | 31° |
| 2026-05-06 14:26 | 51.00234 | -0.98891 | 10317 ft | 316 kts | 25° |
| 2026-05-06 14:26 | 51.02235 | -0.97597 | 9959 ft | 307 kts | 16° |
| 2026-05-06 14:26 | 51.04255 | -0.96592 | 9568 ft | 300 kts | 15° |
| 2026-05-06 14:27 | 51.06233 | -0.95639 | 9175 ft | 294 kts | 15° |
| 2026-05-06 14:27 | 51.08151 | -0.94708 | 8777 ft | 289 kts | 15° |
| 2026-05-06 14:27 | 51.10059 | -0.93780 | 8403 ft | 284 kts | 15° |
| 2026-05-06 14:27 | 51.11930 | -0.92866 | 8043 ft | 279 kts | 15° |
| 2026-05-06 14:28 | 51.13769 | -0.91964 | 7668 ft | 274 kts | 15° |
| 2026-05-06 14:28 | 51.15578 | -0.91076 | 7297 ft | 270 kts | 15° |
| 2026-05-06 14:28 | 51.17366 | -0.90199 | 6925 ft | 266 kts | 15° |
| 2026-05-06 14:28 | 51.19127 | -0.89334 | 6560 ft | 263 kts | 14° |
| 2026-05-06 14:29 | 51.20864 | -0.88480 | 6168 ft | 259 kts | 15° |
| 2026-05-06 14:29 | 51.22585 | -0.87637 | 5781 ft | 258 kts | 15° |
| 2026-05-06 14:29 | 51.24280 | -0.86803 | 5401 ft | 256 kts | 15° |
| 2026-05-06 14:29 | 51.25974 | -0.85969 | 5021 ft | 254 kts | 16° |
| 2026-05-06 14:30 | 51.27661 | -0.85134 | 4631 ft | 253 kts | 16° |
| 2026-05-06 14:30 | 51.29394 | -0.84274 | 4226 ft | 251 kts | 16° |
| 2026-05-06 14:30 | 51.31053 | -0.83452 | 4017 ft | 249 kts | 16° |
| 2026-05-06 14:30 | 51.32683 | -0.82511 | 3978 ft | 251 kts | 26° |
| 2026-05-06 14:31 | 51.33975 | -0.80651 | 3988 ft | 254 kts | 54° |
| 2026-05-06 14:31 | 51.34567 | -0.77981 | 3995 ft | 259 kts | 81° |
| 2026-05-06 14:31 | 51.34602 | -0.75092 | 3975 ft | 261 kts | 89° |
| 2026-05-06 14:31 | 51.34524 | -0.72205 | 3991 ft | 262 kts | 91° |
| 2026-05-06 14:32 | 51.34421 | -0.69296 | 3994 ft | 261 kts | 90° |
| 2026-05-06 14:32 | 51.34311 | -0.66387 | 3994 ft | 261 kts | 90° |
| 2026-05-06 14:32 | 51.34212 | -0.63478 | 3989 ft | 262 kts | 91° |
| 2026-05-06 14:32 | 51.34118 | -0.60562 | 3976 ft | 257 kts | 90° |
| 2026-05-06 14:33 | 51.34018 | -0.57847 | 3997 ft | 239 kts | 90° |
| 2026-05-06 14:33 | 51.33915 | -0.55263 | 3997 ft | 230 kts | 89° |
| 2026-05-06 14:33 | 51.33822 | -0.52692 | 3986 ft | 231 kts | 90° |
| 2026-05-06 14:33 | 51.33736 | -0.50139 | 3982 ft | 225 kts | 90° |
| 2026-05-06 14:34 | 51.33965 | -0.47835 | 3979 ft | 197 kts | 59° |
| 2026-05-06 14:34 | 51.34843 | -0.46420 | 4025 ft | 174 kts | 21° |
| 2026-05-06 14:34 | 51.36024 | -0.46296 | 4006 ft | 175 kts | 343° |
| 2026-05-06 14:34 | 51.36983 | -0.47485 | 4003 ft | 181 kts | 305° |
| 2026-05-06 14:35 | 51.37306 | -0.49440 | 4031 ft | 187 kts | 277° |
| 2026-05-06 14:35 | 51.37282 | -0.51511 | 4001 ft | 189 kts | 271° |
| 2026-05-06 14:35 | 51.37219 | -0.53622 | 3984 ft | 190 kts | 270° |
| 2026-05-06 14:35 | 51.37155 | -0.55733 | 3982 ft | 190 kts | 270° |
| 2026-05-06 14:36 | 51.37087 | -0.57848 | 3981 ft | 190 kts | 270° |
| 2026-05-06 14:36 | 51.37010 | -0.59959 | 3996 ft | 189 kts | 270° |
| 2026-05-06 14:36 | 51.36929 | -0.62066 | 3969 ft | 190 kts | 270° |
| 2026-05-06 14:36 | 51.36835 | -0.64172 | 3993 ft | 190 kts | 271° |
| 2026-05-06 14:37 | 51.36754 | -0.66253 | 3979 ft | 189 kts | 270° |
| 2026-05-06 14:37 | 51.36676 | -0.68365 | 3983 ft | 189 kts | 272° |
| 2026-05-06 14:37 | 51.36578 | -0.70471 | 3980 ft | 189 kts | 270° |
| 2026-05-06 14:37 | 51.36476 | -0.72578 | 3976 ft | 190 kts | 270° |
| 2026-05-06 14:38 | 51.36368 | -0.74691 | 3984 ft | 191 kts | 269° |
| 2026-05-06 14:38 | 51.36426 | -0.76765 | 3929 ft | 187 kts | 291° |
| 2026-05-06 14:38 | 51.37142 | -0.78367 | 3689 ft | 176 kts | 328° |
| 2026-05-06 14:38 | 51.38283 | -0.78932 | 3495 ft | 172 kts | 356° |
| 2026-05-06 14:39 | 51.39484 | -0.79025 | 3259 ft | 173 kts | 359° |
| 2026-05-06 14:39 | 51.40688 | -0.79043 | 3038 ft | 173 kts | 0° |
| 2026-05-06 14:39 | 51.41904 | -0.79047 | 2991 ft | 175 kts | 0° |
| 2026-05-06 14:39 | 51.43119 | -0.79045 | 2988 ft | 174 kts | 0° |
| 2026-05-06 14:40 | 51.44313 | -0.79041 | 2986 ft | 173 kts | 0° |
| 2026-05-06 14:40 | 51.45520 | -0.79036 | 2988 ft | 173 kts | 360° |
| 2026-05-06 14:40 | 51.46720 | -0.78952 | 2959 ft | 168 kts | 11° |
| 2026-05-06 14:40 | 51.47554 | -0.77797 | 2988 ft | 163 kts | 65° |
| 2026-05-06 14:41 | 51.47667 | -0.75999 | 3005 ft | 165 kts | 89° |
| 2026-05-06 14:41 | 51.47595 | -0.74185 | 2992 ft | 165 kts | 88° |
| 2026-05-06 14:41 | 51.47570 | -0.72347 | 2992 ft | 164 kts | 85° |
| 2026-05-06 14:41 | 51.47588 | -0.70496 | 2865 ft | 166 kts | 85° |
| 2026-05-06 14:42 | 51.47601 | -0.68675 | 2625 ft | 159 kts | 85° |
| 2026-05-06 14:42 | 51.47610 | -0.66942 | 2424 ft | 152 kts | 85° |
| 2026-05-06 14:42 | 51.47622 | -0.65259 | 2211 ft | 153 kts | 85° |
| 2026-05-06 14:42 | 51.47633 | -0.63550 | 1992 ft | 152 kts | 84° |
| 2026-05-06 14:43 | 51.47645 | -0.61842 | 1796 ft | 154 kts | 85° |
| 2026-05-06 14:43 | 51.47655 | -0.60135 | 1570 ft | 153 kts | 84° |
| 2026-05-06 14:43 | 51.47667 | -0.58436 | 1372 ft | 152 kts | 83° |
| 2026-05-06 14:43 | 51.47678 | -0.56737 | 1142 ft | 152 kts | 83° |
| 2026-05-06 14:44 | 51.47729 | -0.55078 | 848 ft | 146 kts | 79° |
| 2026-05-06 14:44 | 51.47756 | -0.53440 | 689 ft | 149 kts | 84° |
| 2026-05-06 14:44 | 51.47747 | -0.51789 | 482 ft | 147 kts | 86° |
| 2026-05-06 14:45 | 51.47753 | -0.48560 | 127 ft | 143 kts | 84° |
| 2026-05-06 14:45 | 51.47746 | -0.47068 | 95 ft | 117 kts | 87° |
| 2026-05-06 14:45 | 51.47761 | -0.46307 | 98 ft | 24 kts | 91° |
| 2026-05-06 14:45 | 51.47705 | -0.46147 | 97 ft | 16 kts | 136° |
| 2026-05-06 14:46 | 51.47626 | -0.46066 | 95 ft | 12 kts | 159° |
| 2026-05-06 14:46 | 51.47589 | -0.46069 | 95 ft | 0 kts | 194° |
| 2026-05-06 14:46 | 51.47588 | -0.46069 | 95 ft | 1 kts | 194° |
| 2026-05-06 14:46 | 51.47578 | -0.46074 | 96 ft | 2 kts | 195° |
| 2026-05-06 14:47 | 51.47550 | -0.46094 | 93 ft | 7 kts | 207° |
| 2026-05-06 14:47 | 51.47508 | -0.46164 | 95 ft | 10 kts | 249° |
| 2026-05-06 14:47 | 51.47513 | -0.46283 | 94 ft | 12 kts | 276° |
| 2026-05-06 14:47 | 51.47517 | -0.46434 | 92 ft | 15 kts | 269° |
| 2026-05-06 14:48 | 51.47516 | -0.46551 | 91 ft | 17 kts | 269° |
| 2026-05-06 14:48 | 51.47509 | -0.46696 | 94 ft | 12 kts | 254° |
| 2026-05-06 14:48 | 51.47406 | -0.46733 | 93 ft | 14 kts | 173° |
| 2026-05-06 14:48 | 51.47335 | -0.46721 | 91 ft | 16 kts | 178° |
| 2026-05-06 14:49 | 51.47211 | -0.46723 | 91 ft | 19 kts | 180° |
| 2026-05-06 14:49 | 51.47086 | -0.46722 | 93 ft | 14 kts | 174° |
| 2026-05-06 14:49 | 51.46988 | -0.46653 | 95 ft | 17 kts | 147° |
| 2026-05-06 14:49 | 51.46887 | -0.46546 | 94 ft | 14 kts | 146° |
| 2026-05-06 14:50 | 51.46877 | -0.46486 | 95 ft | 5 kts | 71° |
| 2026-05-06 14:50 | 51.46895 | -0.46439 | 94 ft | 3 kts | 57° |
| 2026-05-06 14:50 | 51.46901 | -0.46424 | 95 ft | 1 kts | 57° |
| 2026-05-06 14:50 | 51.46906 | -0.46413 | 93 ft | 1 kts | 57° |